Terminal Aerodrome Forecast
Issued by NWS Mt. Holly, NJ

Home | Current Version | Previous Version | Text Only | Print | Product List | Glossary On
Versions: 1 2 3 4 5 6 7 8 9 10 11 12 13 14 15 16 17 18 19 20 21 22 23 24 25 26 27
000
FTUS41 KPHI 221100
TAFPHL
TAF
KPHL 221135Z 2212/2318 08008KT P6SM BKN008
      TEMPO 2213/2217 SCT008 BKN015
     FM221700 08007KT P6SM VCSH BKN040
     FM230300 08007KT P6SM OVC015
     FM230700 04007KT 5SM BR OVC007
     FM231400 08008KT P6SM OVC015=

USA.gov is the U.S. government's official web portal to all federal, state and local government web resources and services.